In Rescue
 
Open Full Screen Window  High Contrast Mode
August 20, 2019 7:41 AM EDT
Weather Information
Wind Direction
  ---
Wind Speed
  00 kt (0 mph)
Wind Gust
  00 kt (0 mph)
Altimeter
30.12 in
Visibility
5 SM
Temperature
19° C
66° F
Dewpoint
18° C
64° F
Humidity
94%
1hr Rain Fall
00.00 in.
24hr Rain Fall
00.00 in.
Sky Condition
Clear
MVFR

METAR KPOV 201141Z AUTO 00000KT 5SM CLR 19/18 A3012 RMK AO2 T01890177 PWINO

FAA Disclaimer: The data displayed is for advisory purposes only and is not to be used for flight planning or operations.